Time;durP1;ratioP1;P1;durP2;ratioP2;P2;SDS_P1;SDS_P2;PMS_P1;PMS_P2;Temp;Humidity;BMP_temperature;BMP_pressure;BME280_temperature;BME280_humidity;BME280_pressure;Samples;Min_cycle;Max_cycle;Signal;HPM_P1;HPM_P2
2023/03/25 00:00:06;;;;;;;8.30;2.85;;;8.70;99.90;;;7.70;100.00;96757.06;5049283;28;20402;-76
2023/03/25 00:02:33;;;;;;;9.75;2.60;;;8.60;99.90;;;7.62;100.00;96758.31;5047031;28;20413;-76
2023/03/25 00:04:59;;;;;;;8.18;2.38;;;8.60;99.90;;;7.53;100.00;96762.41;5047919;28;20781;-77
2023/03/25 00:07:26;;;;;;;6.33;2.47;;;8.40;99.90;;;7.52;100.00;96757.41;5039600;28;20995;-76
2023/03/25 00:09:52;;;;;;;5.68;2.10;;;8.40;99.90;;;7.43;100.00;96746.53;5043096;28;20898;-76
2023/03/25 00:12:18;;;;;;;7.90;2.20;;;8.40;99.90;;;7.29;100.00;96730.28;5048715;28;20492;-76
2023/03/25 00:14:53;;;;;;;7.20;2.50;;;8.30;99.90;;;7.21;100.00;96730.72;4985989;28;1749312;-76
2023/03/25 00:17:19;;;;;;;2.95;1.80;;;8.20;99.90;;;7.27;100.00;96735.00;5049005;28;20906;-76
2023/03/25 00:19:49;;;;;;;6.45;1.92;;;8.20;99.90;;;7.22;100.00;96726.25;5049880;28;20436;-76
2023/03/25 00:22:15;;;;;;;4.57;2.22;;;8.20;99.90;;;7.08;100.00;96720.56;5049714;28;20818;-76
2023/03/25 00:24:43;;;;;;;6.18;1.85;;;8.00;99.90;;;7.03;100.00;96711.81;5049880;28;20405;-76
2023/03/25 00:27:09;;;;;;;3.45;1.70;;;8.10;99.90;;;7.02;100.00;96724.16;5047497;28;20502;-76
2023/03/25 00:29:35;;;;;;;10.60;2.30;;;8.00;99.90;;;7.00;100.00;96728.88;5041605;28;20523;-76
2023/03/25 00:32:01;;;;;;;8.15;2.22;;;8.00;99.90;;;6.88;100.00;96736.88;5048431;28;20903;-77
2023/03/25 00:34:27;;;;;;;5.72;2.05;;;7.90;99.90;;;6.86;100.00;96738.97;5048514;28;20420;-77
2023/03/25 00:36:52;;;;;;;5.97;1.92;;;7.80;99.90;;;6.95;100.00;96732.25;5048774;28;20425;-76
2023/03/25 00:39:18;;;;;;;4.07;2.13;;;7.90;99.90;;;6.91;100.00;96738.25;5048927;28;20433;-76
2023/03/25 00:41:47;;;;;;;6.45;2.20;;;7.90;99.90;;;6.82;100.00;96724.72;5043830;28;20488;-77
2023/03/25 00:44:13;;;;;;;5.18;2.20;;;7.80;99.90;;;6.71;100.00;96722.16;5049606;28;20420;-77
2023/03/25 00:46:39;;;;;;;8.07;2.10;;;7.80;99.90;;;6.79;100.00;96722.56;5047316;28;20420;-76
2023/03/25 00:49:06;;;;;;;4.37;2.20;;;7.80;99.90;;;6.80;100.00;96715.47;5049559;28;20502;-76
2023/03/25 00:51:32;;;;;;;6.22;2.33;;;7.80;99.90;;;6.67;100.00;96710.56;5049588;28;21030;-76
2023/03/25 00:53:59;;;;;;;4.78;2.20;;;7.80;99.90;;;6.62;100.00;96708.63;5049617;28;20401;-76
2023/03/25 00:56:26;;;;;;;10.48;3.20;;;7.70;99.90;;;6.68;100.00;96699.81;5048777;28;20469;-76
2023/03/25 00:58:54;;;;;;;5.10;2.40;;;7.70;99.90;;;6.63;100.00;96704.19;5049573;28;20475;-76
2023/03/25 01:01:26;;;;;;;9.75;3.20;;;7.70;99.90;;;6.67;100.00;96707.94;5047867;28;20504;-76
2023/03/25 01:03:58;;;;;;;11.85;2.78;;;7.70;99.90;;;6.73;100.00;96704.31;5049460;28;20752;-76
2023/03/25 01:06:28;;;;;;;14.10;3.43;;;7.70;99.90;;;6.66;100.00;96701.88;5048667;28;20497;-76
2023/03/25 01:08:55;;;;;;;12.90;3.47;;;7.70;99.90;;;6.57;100.00;96698.84;5049507;28;20418;-76
2023/03/25 01:11:25;;;;;;;16.55;3.63;;;7.60;99.90;;;6.55;100.00;96700.94;5049478;28;20420;-76
2023/03/25 01:13:53;;;;;;;14.30;3.80;;;7.60;99.90;;;6.58;100.00;96705.72;5052329;28;20408;-76
2023/03/25 01:16:19;;;;;;;9.68;3.10;;;7.60;99.90;;;6.49;100.00;96708.97;5051537;28;20425;-77
2023/03/25 01:18:45;;;;;;;14.38;3.40;;;7.50;99.90;;;6.47;100.00;96718.94;5052948;28;20436;-76
2023/03/25 01:21:11;;;;;;;8.80;3.40;;;7.50;99.90;;;6.53;100.00;96712.75;5052175;28;20802;-76
2023/03/25 01:23:37;;;;;;;11.18;3.25;;;7.50;99.90;;;6.48;100.00;96715.28;5052647;28;20413;-76
2023/03/25 01:26:04;;;;;;;12.95;3.22;;;7.50;99.90;;;6.53;100.00;96713.53;5051572;28;20503;-77
2023/03/25 01:28:30;;;;;;;10.63;3.05;;;7.50;99.90;;;6.47;100.00;96706.59;5052808;28;20993;-76
2023/03/25 01:31:01;;;;;;;11.18;3.35;;;7.50;99.90;;;6.50;100.00;96698.22;5052788;28;20413;-76
2023/03/25 01:33:27;;;;;;;10.38;2.83;;;7.50;99.90;;;6.53;100.00;96682.00;5052589;28;20398;-76
2023/03/25 01:35:52;;;;;;;13.52;3.40;;;7.60;99.90;;;6.51;100.00;96691.94;5051123;28;20409;-76
2023/03/25 01:38:19;;;;;;;10.50;3.28;;;7.60;99.90;;;6.52;100.00;96701.44;5052477;28;20401;-76
2023/03/25 01:40:45;;;;;;;9.80;3.10;;;7.60;99.90;;;6.50;100.00;96682.47;5051293;28;20405;-76
2023/03/25 01:43:14;;;;;;;11.70;3.28;;;7.60;99.90;;;6.51;100.00;96675.38;5052385;28;20871;-76
2023/03/25 01:45:40;;;;;;;7.28;3.00;;;7.60;99.90;;;6.53;100.00;96682.00;5051578;28;20909;-76
2023/03/25 01:48:14;;;;;;;12.40;3.45;;;7.60;99.90;;;6.60;100.00;96682.59;5052249;28;20421;-76
2023/03/25 01:50:44;;;;;;;9.73;3.28;;;7.70;99.90;;;6.67;100.00;96684.25;5052582;28;20455;-76
2023/03/25 01:53:10;;;;;;;12.32;3.22;;;7.70;99.90;;;6.75;100.00;96682.00;5052254;28;20811;-76
2023/03/25 01:55:38;;;;;;;12.80;3.30;;;7.70;99.90;;;6.61;100.00;96683.41;5051903;28;20399;-77
2023/03/25 01:58:10;;;;;;;14.45;3.22;;;7.60;99.90;;;6.51;100.00;96688.50;5050856;28;20914;-76
2023/03/25 02:00:39;;;;;;;10.18;3.08;;;7.60;99.90;;;6.64;100.00;96682.91;5051436;28;20413;-76
2023/03/25 02:03:10;;;;;;;12.70;2.60;;;7.60;99.90;;;6.77;100.00;96666.75;5051870;28;20497;-76
2023/03/25 02:05:43;;;;;;;9.65;2.80;;;7.70;99.90;;;6.61;100.00;96665.00;5034233;28;20409;-77
2023/03/25 02:08:09;;;;;;;11.40;3.30;;;7.60;99.90;;;6.53;100.00;96657.53;5051823;28;20424;-76
2023/03/25 02:10:36;;;;;;;10.70;2.70;;;7.60;99.90;;;6.54;100.00;96661.75;5051273;28;20413;-76
2023/03/25 02:13:05;;;;;;;12.85;2.88;;;7.50;99.90;;;6.43;100.00;96666.06;5048625;28;20523;-76
2023/03/25 02:15:51;;;;;;;21.10;3.22;;;7.40;99.90;;;6.42;100.00;96663.66;5050446;28;20926;-76
2023/03/25 02:18:33;;;;;;;11.63;2.95;;;7.40;99.90;;;6.35;100.00;96673.56;5050642;28;20393;-77
2023/03/25 02:22:10;;;;;;;10.43;2.63;;;7.40;99.90;;;6.42;100.00;96671.56;5050507;28;20413;-76
2023/03/25 02:25:14;;;;;;;13.25;2.70;;;7.40;99.90;;;6.39;100.00;96680.72;5040419;28;20456;-77
2023/03/25 02:27:58;;;;;;;11.65;3.00;;;7.40;99.90;;;6.40;100.00;96681.50;5050816;28;20413;-76
2023/03/25 02:30:54;;;;;;;14.07;2.83;;;7.40;99.90;;;6.49;100.00;96675.59;5051794;28;20413;-76
2023/03/25 02:33:52;;;;;;;8.70;2.77;;;7.50;99.90;;;6.56;100.00;96681.47;5049379;28;20421;-77
2023/03/25 02:36:55;;;;;;;8.75;2.80;;;7.60;99.90;;;6.79;100.00;96691.00;5050575;28;20949;-75
2023/03/25 02:39:30;;;;;;;7.88;2.50;;;7.70;99.90;;;6.77;100.00;96700.16;5040961;28;20831;-75
2023/03/25 02:42:04;;;;;;;9.00;2.70;;;7.80;99.90;;;6.77;100.00;96705.41;5051314;28;20456;-75
2023/03/25 02:44:38;;;;;;;8.15;2.92;;;7.80;99.90;;;6.83;100.00;96722.88;5051412;28;20405;-77
2023/03/25 02:47:09;;;;;;;9.68;2.90;;;7.80;99.90;;;6.91;100.00;96710.09;5048232;28;20496;-74
2023/03/25 02:49:40;;;;;;;10.77;3.35;;;7.80;99.90;;;6.76;100.00;96735.41;5051286;28;20421;-77
2023/03/25 02:52:12;;;;;;;15.05;2.90;;;7.80;99.90;;;6.67;100.00;96734.22;5051068;28;20408;-75
2023/03/25 02:54:43;;;;;;;10.45;2.90;;;7.70;99.90;;;6.60;100.00;96722.06;5051255;28;20416;-77
2023/03/25 02:57:14;;;;;;;11.77;2.95;;;7.60;99.90;;;6.58;100.00;96718.84;5049539;28;20420;-76
2023/03/25 02:59:42;;;;;;;12.27;3.05;;;7.50;99.90;;;6.46;100.00;96704.22;5051132;28;20413;-74
2023/03/25 03:02:10;;;;;;;5.68;2.30;;;7.50;99.90;;;6.35;100.00;96684.88;5049427;28;20417;-76
2023/03/25 03:04:46;;;;;;;8.55;2.60;;;7.40;99.90;;;6.42;100.00;96690.75;5050934;28;20891;-76
2023/03/25 03:07:22;;;;;;;7.30;2.65;;;7.40;99.90;;;6.47;100.00;96696.06;5046927;28;20505;-76
2023/03/25 03:10:02;;;;;;;7.32;2.60;;;7.50;99.90;;;6.35;100.00;96687.50;5050913;28;20450;-76
2023/03/25 03:12:45;;;;;;;5.38;2.40;;;7.40;99.90;;;6.30;100.00;96690.06;5050684;28;20410;-76
2023/03/25 03:15:26;;;;;;;7.35;2.50;;;7.40;99.90;;;6.31;100.00;96681.16;5050732;28;20401;-76
2023/03/25 03:18:08;;;;;;;7.88;2.55;;;7.40;99.90;;;6.33;100.00;96678.25;5049230;28;20413;-76
2023/03/25 03:20:39;;;;;;;8.18;2.60;;;7.40;99.90;;;6.27;100.00;96673.97;5030818;28;20402;-75
2023/03/25 03:23:12;;;;;;;10.13;3.17;;;7.40;99.90;;;6.21;100.00;96681.78;5030562;28;20426;-75
2023/03/25 03:25:47;;;;;;;12.07;3.15;;;7.30;99.90;;;6.18;100.00;96684.09;5041229;28;20962;-75
2023/03/25 03:28:21;;;;;;;9.13;2.50;;;7.30;99.90;;;6.23;100.00;96689.44;5057437;28;20776;-76
2023/03/25 03:30:53;;;;;;;8.27;2.63;;;7.30;99.90;;;6.22;100.00;96691.25;5050651;28;20508;-76
2023/03/25 03:33:25;;;;;;;11.00;2.70;;;7.30;99.90;;;6.18;100.00;96697.22;5050485;28;20891;-76
2023/03/25 03:35:57;;;;;;;7.25;2.60;;;7.20;99.90;;;6.01;100.00;96699.88;5047533;28;20906;-75
2023/03/25 03:38:28;;;;;;;9.13;2.60;;;7.10;99.90;;;6.03;100.00;96699.59;5040667;28;20763;-75
2023/03/25 03:41:00;;;;;;;8.03;2.67;;;7.00;99.90;;;5.96;100.00;96709.47;5050458;28;20760;-77
2023/03/25 03:43:30;;;;;;;5.93;2.33;;;7.00;99.90;;;5.90;100.00;96713.88;5032652;28;20439;-75
2023/03/25 03:46:01;;;;;;;9.30;2.60;;;7.00;99.90;;;6.01;100.00;96720.09;5048292;28;20859;-77
2023/03/25 03:48:37;;;;;;;7.25;2.50;;;7.00;99.90;;;5.92;100.00;96722.31;5050159;28;20504;-75
2023/03/25 03:51:09;;;;;;;4.88;2.35;;;7.00;99.90;;;5.98;100.00;96726.59;5037389;28;20798;-77
2023/03/25 03:53:40;;;;;;;6.78;2.30;;;7.00;99.90;;;5.91;100.00;96727.78;5045919;28;20479;-76
2023/03/25 03:56:12;;;;;;;7.07;2.40;;;7.00;99.90;;;5.85;100.00;96732.13;5050184;28;20401;-76
2023/03/25 03:58:41;;;;;;;6.10;2.35;;;6.90;99.90;;;5.89;100.00;96735.09;5050330;28;20429;-76
2023/03/25 04:01:12;;;;;;;8.55;2.20;;;6.90;99.90;;;5.88;100.00;96734.31;5048851;28;20417;-76
2023/03/25 04:03:47;;;;;;;4.75;2.17;;;6.90;99.90;;;5.86;100.00;96738.19;5048393;28;20417;-76
2023/03/25 04:06:20;;;;;;;4.68;2.00;;;6.90;99.90;;;5.79;100.00;96736.47;5050171;28;20405;-77
2023/03/25 04:08:58;;;;;;;5.33;2.20;;;6.90;99.90;;;5.81;100.00;96731.00;5048810;28;20457;-77
2023/03/25 04:11:32;;;;;;;4.95;2.00;;;6.90;99.90;;;5.75;100.00;96738.00;5049672;28;20875;-77
2023/03/25 04:16:36;;;;;;;9.68;2.30;;;6.90;99.90;;;5.86;100.00;96738.19;5021227;28;20470;-75
2023/03/25 04:19:02;;;;;;;4.60;2.00;;;6.90;99.90;;;5.85;100.00;96734.75;5030275;28;20403;-75
2023/03/25 04:21:28;;;;;;;4.20;1.90;;;6.90;99.90;;;5.79;100.00;96738.31;5029774;28;20407;-75
2023/03/25 04:23:54;;;;;;;4.60;2.00;;;6.90;99.90;;;5.85;100.00;96740.03;5021060;28;20446;-75
2023/03/25 04:26:20;;;;;;;8.23;2.30;;;6.90;99.90;;;5.79;100.00;96743.56;5002423;28;20563;-76
2023/03/25 04:28:47;;;;;;;4.82;2.08;;;6.90;99.90;;;5.78;100.00;96742.00;5010132;28;20420;-76
2023/03/25 04:31:15;;;;;;;5.40;2.05;;;6.80;99.90;;;5.62;100.00;96733.03;4992613;28;20408;-76
2023/03/25 04:33:45;;;;;;;5.10;2.30;;;6.70;99.90;;;5.66;100.00;96741.25;4992598;28;20420;-76
2023/03/25 04:36:12;;;;;;;10.43;2.50;;;6.70;99.90;;;5.63;100.00;96739.91;4985159;28;20430;-76
2023/03/25 04:38:39;;;;;;;4.55;2.05;;;6.70;99.90;;;5.53;100.00;96734.44;4994489;28;20930;-76
2023/03/25 04:41:06;;;;;;;5.57;2.35;;;6.70;99.90;;;5.54;100.00;96741.31;5001908;28;20898;-76
2023/03/25 04:43:32;;;;;;;9.10;2.17;;;6.60;99.90;;;5.52;100.00;96745.97;5002367;28;20420;-76
2023/03/25 04:45:59;;;;;;;6.63;2.30;;;6.50;99.90;;;5.39;100.00;96746.25;5001948;28;20405;-76
2023/03/25 04:48:29;;;;;;;7.33;2.20;;;6.50;99.90;;;5.34;100.00;96744.31;5012592;28;20420;-76
2023/03/25 04:50:56;;;;;;;5.55;2.10;;;6.50;99.90;;;5.33;100.00;96745.38;4996197;28;20440;-76
2023/03/25 04:53:22;;;;;;;4.20;2.17;;;6.50;99.90;;;5.35;100.00;96753.00;5006961;28;20767;-76
2023/03/25 04:55:49;;;;;;;4.80;2.53;;;6.40;99.90;;;5.38;100.00;96749.91;5005573;28;20400;-76
2023/03/25 04:58:15;;;;;;;6.65;2.40;;;6.50;99.90;;;5.31;100.00;96750.06;5013774;28;20409;-76
2023/03/25 05:00:42;;;;;;;8.30;2.75;;;6.50;99.90;;;5.41;100.00;96744.97;5009184;28;20423;-76
2023/03/25 05:03:10;;;;;;;11.30;2.40;;;6.50;99.90;;;5.33;100.00;96748.00;5000661;28;20488;-74
2023/03/25 05:05:37;;;;;;;6.83;2.67;;;6.50;99.90;;;5.30;100.00;96750.28;5002003;28;20401;-74
2023/03/25 05:08:03;;;;;;;6.90;2.47;;;6.40;99.90;;;5.26;100.00;96757.81;5002323;28;20462;-75
2023/03/25 05:10:29;;;;;;;9.57;3.08;;;6.30;99.90;;;5.20;100.00;96757.94;5013670;28;20458;-75
2023/03/25 05:12:58;;;;;;;9.00;2.47;;;6.20;99.90;;;5.19;100.00;96766.88;5008830;28;20418;-75
2023/03/25 05:15:25;;;;;;;11.27;2.60;;;6.30;99.90;;;5.22;100.00;96769.00;5007281;28;20774;-75
2023/03/25 05:17:51;;;;;;;13.73;3.42;;;6.30;99.90;;;5.43;100.00;96769.16;4993918;28;20514;-75
2023/03/25 05:20:18;;;;;;;8.15;2.85;;;6.40;99.90;;;5.49;100.00;96775.31;4993646;28;20796;-74
2023/03/25 05:22:44;;;;;;;8.98;2.90;;;6.60;99.90;;;5.56;100.00;96775.19;4992414;28;20406;-75
2023/03/25 05:25:10;;;;;;;15.38;3.35;;;6.60;99.90;;;5.60;100.00;96779.72;4993516;28;20414;-75
2023/03/25 05:27:37;;;;;;;10.25;2.65;;;6.70;99.90;;;5.62;100.00;96785.56;4992085;28;20414;-72
2023/03/25 05:30:06;;;;;;;9.75;2.67;;;6.70;99.90;;;5.65;100.00;96781.66;4990478;28;20419;-71
2023/03/25 05:32:32;;;;;;;15.90;3.17;;;6.70;99.90;;;5.81;100.00;96786.94;4992647;28;20418;-72
2023/03/25 05:34:58;;;;;;;11.15;3.00;;;6.80;99.90;;;5.80;100.00;96779.31;4989159;28;20480;-71
2023/03/25 05:37:26;;;;;;;8.43;2.70;;;6.80;99.90;;;5.86;100.00;96783.63;4991587;28;20420;-71
2023/03/25 05:39:51;;;;;;;13.77;3.08;;;6.90;99.90;;;5.95;100.00;96779.59;4992508;28;20445;-70
2023/03/25 05:42:21;;;;;;;9.85;2.63;;;7.00;99.90;;;5.91;100.00;96777.69;4990124;28;20422;-71
2023/03/25 05:44:49;;;;;;;8.48;2.67;;;7.00;99.90;;;5.89;100.00;96772.66;4989841;28;20425;-70
2023/03/25 05:47:16;;;;;;;10.65;3.05;;;7.00;99.90;;;5.89;100.00;96770.03;4991087;28;20442;-70
2023/03/25 05:49:42;;;;;;;11.85;2.70;;;6.90;99.90;;;5.89;100.00;96766.63;5001549;28;20931;-73
2023/03/25 05:52:08;;;;;;;16.23;3.05;;;6.90;99.90;;;5.87;100.00;96766.81;4990722;28;20426;-71
2023/03/25 05:54:40;;;;;;;9.35;2.70;;;6.90;99.90;;;5.85;100.00;96774.16;4984627;28;20474;-71
2023/03/25 05:57:06;;;;;;;14.63;2.83;;;7.00;99.90;;;5.99;100.00;96766.81;4990875;28;20410;-72
2023/03/25 05:59:32;;;;;;;14.40;3.90;;;7.00;99.90;;;5.87;100.00;96772.06;4989237;28;20426;-70
2023/03/25 06:02:00;;;;;;;11.23;3.00;;;6.90;99.90;;;5.85;100.00;96768.91;4991332;28;20406;-71
2023/03/25 06:04:26;;;;;;;14.88;2.95;;;6.90;99.90;;;5.80;100.00;96780.09;4991695;28;20403;-73
2023/03/25 06:06:52;;;;;;;13.50;3.03;;;6.80;99.90;;;5.76;100.00;96779.00;4990538;28;20433;-72
2023/03/25 06:09:18;;;;;;;12.90;3.10;;;6.80;99.90;;;5.85;100.00;96774.16;4990446;28;20423;-71
2023/03/25 06:11:52;;;;;;;8.43;2.85;;;6.90;99.90;;;5.93;100.00;96775.63;4991316;28;20414;-70
2023/03/25 06:14:19;;;;;;;7.68;2.83;;;7.00;99.90;;;5.96;100.00;96781.19;4990511;28;20426;-70
2023/03/25 06:16:45;;;;;;;13.30;2.90;;;7.00;99.90;;;6.05;100.00;96795.56;4996767;28;20411;-72
2023/03/25 06:19:11;;;;;;;18.02;3.40;;;7.00;99.90;;;6.03;100.00;96794.19;4998728;28;20413;-70
2023/03/25 06:21:37;;;;;;;15.37;3.13;;;7.00;99.90;;;6.05;100.00;96800.81;5000824;28;20444;-70
2023/03/25 06:24:04;;;;;;;9.32;2.80;;;7.10;99.90;;;6.17;100.00;96792.84;5010575;28;20409;-76
2023/03/25 06:26:31;;;;;;;19.38;3.80;;;7.20;99.90;;;6.20;100.00;96805.53;4991203;28;20432;-70
2023/03/25 06:28:58;;;;;;;19.80;3.50;;;7.20;99.90;;;6.25;100.00;96797.72;4989264;28;20433;-72
2023/03/25 06:31:25;;;;;;;16.20;2.90;;;7.20;99.90;;;6.30;100.00;96802.28;4985024;28;20743;-72
2023/03/25 06:33:52;;;;;;;8.95;2.55;;;7.30;99.90;;;6.22;100.00;96793.75;4998903;28;20422;-72
2023/03/25 06:36:19;;;;;;;15.83;3.50;;;7.30;99.90;;;6.21;100.00;96792.16;4990914;28;20414;-71
2023/03/25 06:38:45;;;;;;;13.20;2.70;;;7.20;99.90;;;6.30;100.00;96800.44;4994602;28;20456;-71
2023/03/25 06:41:12;;;;;;;10.20;2.70;;;7.30;99.90;;;6.31;100.00;96802.06;4991684;28;20406;-70
2023/03/25 06:43:40;;;;;;;15.95;3.00;;;7.30;99.90;;;6.29;100.00;96795.44;4989336;28;20414;-71
2023/03/25 06:46:07;;;;;;;11.18;2.65;;;7.30;99.90;;;6.37;100.00;96801.09;4990074;28;20418;-71
2023/03/25 06:48:33;;;;;;;7.90;2.80;;;7.30;99.90;;;6.23;100.00;96799.81;4990178;28;20426;-71
2023/03/25 06:50:59;;;;;;;13.15;2.40;;;7.20;99.90;;;6.30;100.00;96803.06;4998820;28;20784;-71
2023/03/25 06:53:25;;;;;;;11.05;2.60;;;7.30;99.90;;;6.31;100.00;96799.41;4982001;28;20416;-71
2023/03/25 06:55:51;;;;;;;10.52;2.47;;;7.30;99.90;;;6.56;100.00;96791.91;4990979;28;20414;-71
2023/03/25 06:58:17;;;;;;;13.50;3.20;;;7.40;99.90;;;6.42;100.00;96800.38;4983574;28;20426;-71
2023/03/25 07:00:44;;;;;;;12.43;2.70;;;7.40;99.90;;;6.49;100.00;96801.81;4989520;28;20449;-71
2023/03/25 07:03:11;;;;;;;14.60;2.70;;;7.40;99.90;;;6.63;100.00;96802.28;4987702;28;20407;-71
2023/03/25 07:05:40;;;;;;;13.68;2.78;;;7.60;99.90;;;6.61;100.00;96799.09;4990043;28;20399;-72
2023/03/25 07:08:08;;;;;;;11.60;2.50;;;7.60;99.90;;;6.67;100.00;96800.78;4996627;28;20452;-72
2023/03/25 07:10:34;;;;;;;9.65;2.53;;;7.60;99.90;;;6.76;100.00;96807.22;4979547;28;20472;-72
2023/03/25 07:12:59;;;;;;;10.77;2.38;;;7.60;99.90;;;6.83;100.00;96796.53;4971796;28;20426;-72
2023/03/25 07:15:25;;;;;;;14.13;2.73;;;7.80;99.90;;;7.08;100.00;96822.38;4988988;28;20858;-71
2023/03/25 07:17:51;;;;;;;9.55;2.55;;;7.90;99.90;;;6.93;100.00;96804.56;4988465;28;20457;-72
2023/03/25 07:20:19;;;;;;;10.52;2.45;;;7.90;99.90;;;6.92;100.00;96813.47;4990604;28;20425;-72
2023/03/25 07:22:45;;;;;;;8.77;2.40;;;7.90;99.90;;;6.92;100.00;96798.50;4987413;28;20418;-72
2023/03/25 07:25:11;;;;;;;16.20;2.30;;;7.90;99.90;;;6.89;100.00;96806.88;4974526;28;20430;-72
2023/03/25 07:27:37;;;;;;;10.43;2.60;;;7.90;99.90;;;6.83;100.00;96810.47;4975015;28;20430;-71
2023/03/25 07:30:04;;;;;;;9.73;2.20;;;7.80;99.90;;;6.88;100.00;96813.19;4989713;28;20517;-72
2023/03/25 07:32:30;;;;;;;9.95;2.25;;;7.90;99.90;;;6.86;100.00;96801.28;4989511;28;20406;-72
2023/03/25 07:34:56;;;;;;;9.88;2.20;;;7.80;99.90;;;6.85;100.00;96808.38;4988433;28;20450;-72
2023/03/25 07:37:23;;;;;;;14.50;2.20;;;7.80;99.90;;;6.85;100.00;96807.59;4987628;28;21077;-76
2023/03/25 07:39:49;;;;;;;11.20;2.60;;;7.80;99.90;;;6.83;100.00;96809.69;4983859;28;20417;-74
2023/03/25 07:42:16;;;;;;;7.63;2.10;;;7.70;99.90;;;6.84;100.00;96809.41;4985495;28;20473;-74
2023/03/25 07:44:41;;;;;;;8.20;2.30;;;7.80;99.90;;;6.87;100.00;96810.78;4985499;28;20419;-75
2023/03/25 07:47:07;;;;;;;11.47;2.50;;;7.90;99.90;;;6.99;100.00;96814.13;4996528;28;20410;-74
2023/03/25 07:49:34;;;;;;;5.38;2.22;;;7.90;99.90;;;7.08;100.00;96819.75;4992074;28;20422;-75
2023/03/25 07:52:00;;;;;;;13.70;2.40;;;8.00;99.90;;;7.24;100.00;96808.41;4997570;28;20414;-74
2023/03/25 07:54:27;;;;;;;7.18;2.13;;;8.10;99.90;;;7.22;100.00;96803.38;4989947;28;20824;-73
2023/03/25 07:56:54;;;;;;;12.63;2.37;;;8.10;99.90;;;7.21;100.00;96801.81;4989443;28;20438;-75
2023/03/25 07:59:20;;;;;;;7.32;1.90;;;8.10;99.90;;;7.45;100.00;96802.34;4983694;28;20833;-75
2023/03/25 08:01:46;;;;;;;8.13;1.73;;;8.20;99.90;;;7.66;100.00;96796.28;4987472;28;20924;-75
2023/03/25 08:04:12;;;;;;;4.07;1.80;;;8.50;99.90;;;7.87;100.00;96807.84;4990192;28;20428;-75
2023/03/25 08:06:38;;;;;;;6.22;1.80;;;8.70;99.90;;;8.18;100.00;96801.03;4989036;28;20422;-73
2023/03/25 08:09:04;;;;;;;7.60;1.80;;;8.90;99.90;;;8.12;100.00;96802.00;4988466;28;20531;-72
2023/03/25 08:11:31;;;;;;;7.75;1.70;;;9.10;99.90;;;8.21;100.00;96794.44;4981933;28;20435;-73
2023/03/25 08:13:57;;;;;;;5.57;1.60;;;9.10;99.90;;;8.04;100.00;96810.38;4989656;28;20409;-73
2023/03/25 08:16:23;;;;;;;5.95;1.60;;;8.90;99.90;;;8.15;100.00;96807.59;4989449;28;20776;-73
2023/03/25 08:18:51;;;;;;;6.82;1.45;;;9.00;99.90;;;8.31;100.00;96799.84;4989127;28;20430;-74
2023/03/25 08:21:24;;;;;;;6.38;1.65;;;9.10;99.90;;;8.41;100.00;96813.13;4988361;28;20418;-74
2023/03/25 08:23:51;;;;;;;5.60;1.80;;;9.20;99.90;;;8.45;100.00;96815.00;4992531;28;20776;-73
2023/03/25 08:26:17;;;;;;;7.72;1.85;;;9.30;99.90;;;8.29;100.00;96817.72;5009546;28;20499;-73
2023/03/25 08:28:46;;;;;;;4.10;1.40;;;9.20;99.90;;;8.34;100.00;96812.56;5013129;28;21065;-73
2023/03/25 08:31:12;;;;;;;5.10;1.63;;;9.20;99.90;;;8.72;100.00;96833.41;4994281;28;20916;-73
2023/03/25 08:33:39;;;;;;;5.30;1.52;;;9.40;99.90;;;8.74;100.00;96817.34;4993125;28;20421;-74
2023/03/25 08:36:06;;;;;;;3.88;1.50;;;9.50;99.90;;;8.49;100.00;96833.78;4993365;28;20505;-73
2023/03/25 08:38:32;;;;;;;5.60;1.43;;;9.40;99.90;;;8.23;100.00;96827.44;4995429;28;20402;-73
2023/03/25 08:40:58;;;;;;;4.15;1.40;;;9.10;99.90;;;8.20;100.00;96833.19;4995874;28;20426;-73
2023/03/25 08:43:26;;;;;;;4.45;1.70;;;9.10;99.90;;;7.89;100.00;96824.22;4999257;28;20416;-71
2023/03/25 08:45:54;;;;;;;7.18;1.30;;;8.80;99.90;;;7.50;100.00;96827.97;5004296;28;20467;-74
2023/03/25 08:48:21;;;;;;;4.10;1.33;;;8.40;99.90;;;7.51;100.00;96819.81;5001870;28;21009;-73
2023/03/25 08:50:47;;;;;;;4.03;1.40;;;8.40;99.90;;;7.22;100.00;96826.25;4999732;28;20776;-75
2023/03/25 08:53:13;;;;;;;1.70;1.25;;;8.20;99.90;;;7.35;100.00;96832.00;4991969;28;20415;-75
2023/03/25 08:55:39;;;;;;;5.38;1.67;;;8.20;99.90;;;7.17;100.00;96842.78;4991333;28;20828;-75
2023/03/25 08:58:06;;;;;;;4.00;1.63;;;8.10;99.90;;;7.20;100.00;96837.06;4992503;28;20750;-74
2023/03/25 09:00:33;;;;;;;4.68;1.40;;;8.10;99.90;;;7.06;100.00;96841.06;4990502;28;20407;-77
2023/03/25 09:03:01;;;;;;;6.78;1.40;;;8.00;99.90;;;7.06;100.00;96835.81;4991168;28;20472;-76
2023/03/25 09:05:28;;;;;;;2.22;1.40;;;8.00;99.90;;;7.04;100.00;96842.34;4991321;28;20406;-77
2023/03/25 09:07:54;;;;;;;3.90;1.55;;;8.00;99.90;;;6.97;100.00;96832.78;4991538;28;20420;-76
2023/03/25 09:10:20;;;;;;;3.58;1.60;;;8.00;99.90;;;6.97;100.00;96829.34;4989669;28;20798;-77
2023/03/25 09:12:46;;;;;;;4.85;1.70;;;7.90;99.90;;;7.01;100.00;96819.94;4991036;28;20406;-77
2023/03/25 09:15:12;;;;;;;2.38;1.60;;;8.00;99.90;;;7.10;100.00;96807.97;4990755;28;20883;-77
2023/03/25 09:17:39;;;;;;;4.68;1.70;;;8.00;99.90;;;7.18;100.00;96804.91;4989622;28;20468;-78
2023/03/25 09:20:08;;;;;;;5.80;1.98;;;8.10;99.90;;;7.45;100.00;96804.97;4988452;28;20494;-73
2023/03/25 09:22:34;;;;;;;3.30;1.60;;;8.40;99.90;;;7.53;100.00;96809.00;4991522;28;21032;-75
2023/03/25 09:25:00;;;;;;;5.43;1.83;;;8.50;99.90;;;7.82;100.00;96805.13;4991424;28;20406;-76
2023/03/25 09:27:26;;;;;;;2.90;1.52;;;8.70;99.90;;;8.24;100.00;96801.88;4972947;28;20435;-75
2023/03/25 09:29:52;;;;;;;3.15;1.50;;;9.10;99.90;;;8.16;100.00;96808.38;4989299;28;20426;-76
2023/03/25 09:32:18;;;;;;;2.97;1.53;;;9.10;99.90;;;8.22;100.00;96801.31;4991531;28;20504;-75
2023/03/25 09:34:44;;;;;;;2.90;1.40;;;9.20;99.90;;;8.21;100.00;96807.63;4988979;28;20426;-78
2023/03/25 09:37:11;;;;;;;4.03;1.50;;;9.10;99.90;;;8.32;100.00;96798.81;4992006;28;20410;-77
2023/03/25 09:39:37;;;;;;;4.38;1.80;;;9.20;99.90;;;8.15;100.00;96789.13;4990098;28;20422;-77
2023/03/25 09:42:39;;;;;;;3.72;1.65;;;9.00;99.90;;;8.09;100.00;96787.50;4973769;28;20414;-77
2023/03/25 09:45:21;;;;;;;5.68;1.63;;;9.00;99.90;;;8.26;100.00;96791.88;4970430;28;20456;-77
2023/03/25 09:48:01;;;;;;;6.60;1.55;;;9.10;99.90;;;8.58;100.00;96784.75;4972781;28;20477;-77
2023/03/25 09:50:34;;;;;;;5.00;1.63;;;9.50;99.90;;;8.83;100.00;96782.31;4987952;28;20517;-75
2023/03/25 09:53:06;;;;;;;6.13;1.50;;;9.80;99.90;;;9.01;100.00;96789.03;4970455;28;20458;-76
2023/03/25 09:55:39;;;;;;;7.35;1.63;;;9.80;99.90;;;8.78;100.00;96784.94;4989670;28;20425;-74
2023/03/25 09:58:26;;;;;;;2.92;1.50;;;9.70;99.90;;;8.69;100.00;96788.28;4973912;28;21084;-76
2023/03/25 10:00:59;;;;;;;5.70;1.80;;;9.60;99.90;;;8.81;100.00;96786.25;4988776;28;20457;-74
2023/03/25 10:03:30;;;;;;;3.97;1.58;;;9.70;99.90;;;8.89;100.00;96799.78;4990091;28;20415;-74
2023/03/25 10:06:13;;;;;;;5.95;1.75;;;9.80;99.90;;;8.65;100.00;96801.19;4987501;28;20418;-74
2023/03/25 10:09:19;;;;;;;6.43;1.67;;;9.60;99.90;;;8.65;100.00;96803.03;4990959;28;20489;-74
2023/03/25 10:11:54;;;;;;;5.93;1.50;;;9.50;99.90;;;8.79;100.00;96804.19;4988447;28;20503;-77
2023/03/25 10:17:12;;;;;;;2.65;1.33;;;10.10;99.90;;;10.19;100.00;96796.34;5023056;28;20929;-76
2023/03/25 10:19:53;;;;;;;2.17;1.02;;;10.90;99.90;;;10.43;100.00;96790.31;5020581;28;20405;-80
2023/03/25 10:22:27;;;;;;;1.35;1.00;;;11.40;99.90;;;10.81;100.00;96783.66;5023033;28;20742;-77
2023/03/25 10:24:58;;;;;;;5.07;1.20;;;11.60;99.90;;;10.77;100.00;96779.16;5022695;28;20467;-77
2023/03/25 10:27:32;;;;;;;2.95;1.23;;;11.60;99.90;;;10.99;100.00;96787.59;5019518;28;20914;-75
2023/03/25 10:30:06;;;;;;;4.10;1.20;;;11.80;99.90;;;10.65;100.00;96786.59;5017765;28;20432;-74
2023/03/25 10:32:38;;;;;;;7.40;1.40;;;11.40;99.90;;;10.68;100.00;96786.84;5024400;28;20518;-73
2023/03/25 10:35:10;;;;;;;3.42;1.23;;;11.60;99.90;;;10.97;100.00;96775.69;5024222;28;20442;-73
2023/03/25 10:37:40;;;;;;;3.95;1.10;;;11.70;99.90;;;11.20;100.00;96780.41;5024011;28;20404;-73